createdAt,value
2018-07-21T00:00:17.155Z,0
2018-07-21T00:01:18.548Z,0
2018-07-21T00:02:19.962Z,0
2018-07-21T00:03:21.317Z,0
2018-07-21T00:04:22.704Z,0
2018-07-21T00:05:24.097Z,0
2018-07-21T00:06:25.481Z,0
2018-07-21T00:07:26.869Z,0
2018-07-21T00:08:28.247Z,0
2018-07-21T00:09:29.637Z,0
2018-07-21T00:10:31.038Z,0
2018-07-21T00:11:32.414Z,0
2018-07-21T00:12:33.790Z,0
2018-07-21T00:13:35.185Z,0
2018-07-21T00:14:36.562Z,0
2018-07-21T00:15:37.963Z,0
2018-07-21T00:16:39.355Z,0
2018-07-21T00:17:40.750Z,0
2018-07-21T00:18:42.136Z,0
2018-07-21T00:19:43.523Z,0
2018-07-21T00:20:44.926Z,0
2018-07-21T00:21:46.310Z,0
2018-07-21T00:22:47.708Z,0
2018-07-21T00:23:49.072Z,0
2018-07-21T00:24:50.450Z,0
2018-07-21T00:25:51.858Z,0
2018-07-21T00:26:53.246Z,0
2018-07-21T00:27:54.639Z,0
2018-07-21T00:28:56.059Z,0
2018-07-21T00:29:57.449Z,0
2018-07-21T00:30:58.861Z,0
2018-07-21T00:32:00.251Z,0
2018-07-21T00:33:01.713Z,0
2018-07-21T00:34:03.109Z,0
2018-07-21T00:35:04.553Z,0
2018-07-21T00:36:05.941Z,0
2018-07-21T00:37:07.352Z,0
2018-07-21T00:38:08.720Z,0
2018-07-21T00:39:10.157Z,0
2018-07-21T00:40:11.540Z,0
2018-07-21T00:41:12.925Z,0
2018-07-21T00:42:14.321Z,0
2018-07-21T00:43:15.803Z,0
2018-07-21T00:44:17.188Z,0
2018-07-21T00:45:18.582Z,0
2018-07-21T00:46:19.968Z,0
2018-07-21T00:47:21.362Z,0
2018-07-21T00:48:22.747Z,0
2018-07-21T00:49:24.137Z,0
2018-07-21T00:50:25.534Z,0
2018-07-21T00:51:27.012Z,0
2018-07-21T00:52:28.404Z,0
2018-07-21T00:53:29.825Z,0
2018-07-21T00:54:31.240Z,0
2018-07-21T00:55:32.629Z,0
2018-07-21T00:56:34.038Z,0
2018-07-21T00:57:35.439Z,0
2018-07-21T00:58:36.835Z,0
2018-07-21T00:59:38.254Z,0
2018-07-21T01:00:39.673Z,0
2018-07-21T01:01:41.062Z,0
2018-07-21T01:02:42.457Z,0
2018-07-21T01:03:43.867Z,0
2018-07-21T01:04:45.272Z,0
2018-07-21T01:05:46.649Z,0
2018-07-21T01:06:48.025Z,0
2018-07-21T01:07:49.401Z,0
2018-07-21T01:08:50.789Z,0
2018-07-21T01:09:52.180Z,0
2018-07-21T01:10:53.567Z,0
2018-07-21T01:11:54.962Z,0
2018-07-21T01:12:56.368Z,0
2018-07-21T01:13:57.756Z,0
2018-07-21T01:14:59.179Z,0
2018-07-21T01:16:00.570Z,0
2018-07-21T01:17:01.957Z,0
2018-07-21T01:18:03.364Z,0
2018-07-21T01:19:04.751Z,0
2018-07-21T01:20:06.130Z,0
2018-07-21T01:21:07.509Z,0
2018-07-21T01:22:08.913Z,0
2018-07-21T01:23:10.302Z,0
2018-07-21T01:24:11.686Z,0
2018-07-21T01:25:13.076Z,0
2018-07-21T01:26:14.467Z,0
2018-07-21T01:27:15.856Z,0
2018-07-21T01:28:17.234Z,0
2018-07-21T01:29:18.614Z,0
2018-07-21T01:30:19.995Z,0
2018-07-21T01:31:21.374Z,0
2018-07-21T01:32:22.769Z,0
2018-07-21T01:33:24.144Z,0
2018-07-21T01:34:25.537Z,0
2018-07-21T01:35:26.929Z,0
2018-07-21T01:36:28.329Z,0
2018-07-21T01:37:29.726Z,0
2018-07-21T01:38:31.122Z,0
2018-07-21T01:39:32.569Z,0
2018-07-21T01:40:33.962Z,0
2018-07-21T01:41:35.341Z,0
2018-07-21T01:42:36.736Z,0
2018-07-21T01:43:38.126Z,0
2018-07-21T01:44:39.529Z,0
2018-07-21T01:45:40.940Z,0
2018-07-21T01:46:42.330Z,0
2018-07-21T01:47:43.716Z,0
2018-07-21T01:48:45.161Z,0
2018-07-21T01:49:46.556Z,0
2018-07-21T01:50:47.952Z,0
2018-07-21T01:51:49.334Z,0
2018-07-21T01:52:50.727Z,0
2018-07-21T01:53:52.106Z,0
2018-07-21T01:54:53.498Z,0
2018-07-21T01:55:54.893Z,0
2018-07-21T01:56:56.298Z,0
2018-07-21T01:57:57.681Z,0
2018-07-21T01:58:59.075Z,0
2018-07-21T02:00:00.458Z,0
2018-07-21T02:01:01.857Z,0
2018-07-21T02:02:03.251Z,0
2018-07-21T02:03:04.669Z,0
2018-07-21T02:04:06.056Z,0
2018-07-21T02:05:07.461Z,0
2018-07-21T02:06:08.837Z,0
2018-07-21T02:07:10.225Z,0
2018-07-21T02:08:11.612Z,0
2018-07-21T02:09:13.031Z,0
2018-07-21T02:10:14.433Z,0
2018-07-21T02:11:15.802Z,0
2018-07-21T02:12:17.213Z,0
2018-07-21T02:13:18.576Z,0
2018-07-21T02:14:19.960Z,0
2018-07-21T02:15:21.342Z,0
2018-07-21T02:16:22.723Z,0
2018-07-21T02:17:24.142Z,0
2018-07-21T02:18:25.509Z,0
2018-07-21T02:19:26.905Z,0
2018-07-21T02:20:28.295Z,0
2018-07-21T02:21:29.694Z,0
2018-07-21T02:22:31.137Z,0
2018-07-21T02:23:32.505Z,0
2018-07-21T02:24:33.910Z,0
2018-07-21T02:25:35.233Z,0
2018-07-21T02:26:36.616Z,0
2018-07-21T02:27:38.006Z,0
2018-07-21T02:28:39.958Z,0
2018-07-21T02:29:41.354Z,0
2018-07-21T02:30:42.753Z,0
2018-07-21T02:31:44.154Z,0
2018-07-21T02:32:45.540Z,0
2018-07-21T02:33:46.942Z,0
2018-07-21T02:34:48.340Z,0
2018-07-21T02:35:49.746Z,0
2018-07-21T02:36:51.122Z,0
2018-07-21T02:37:52.508Z,0
2018-07-21T02:38:53.898Z,0
2018-07-21T02:39:55.268Z,0
2018-07-21T02:40:56.653Z,0
2018-07-21T02:41:58.032Z,0
2018-07-21T02:42:59.414Z,0
2018-07-21T02:44:00.790Z,0
2018-07-21T02:45:02.191Z,0
2018-07-21T02:46:03.585Z,0
2018-07-21T02:47:04.981Z,0
2018-07-21T02:48:06.396Z,0
2018-07-21T02:49:07.792Z,0
2018-07-21T02:50:09.185Z,0
2018-07-21T02:51:10.562Z,0
2018-07-21T02:52:11.947Z,0
2018-07-21T02:53:13.336Z,0
2018-07-21T02:54:14.750Z,0
2018-07-21T02:55:16.131Z,0
2018-07-21T02:56:17.526Z,0
2018-07-21T02:57:18.936Z,0
2018-07-21T02:58:20.322Z,0
2018-07-21T02:59:21.698Z,0
2018-07-21T03:00:23.073Z,0
2018-07-21T03:01:24.460Z,0
2018-07-21T03:02:25.842Z,0
2018-07-21T03:03:27.209Z,0
2018-07-21T03:04:28.637Z,0
2018-07-21T03:05:30.033Z,0
2018-07-21T03:06:31.416Z,0
2018-07-21T03:07:32.803Z,0
2018-07-21T03:08:34.178Z,0
2018-07-21T03:09:35.572Z,0
2018-07-21T03:10:36.972Z,0
2018-07-21T03:11:38.354Z,0
2018-07-21T03:12:39.726Z,0
2018-07-21T03:13:41.120Z,0
2018-07-21T03:14:42.510Z,0
2018-07-21T03:15:43.894Z,0
2018-07-21T03:16:45.295Z,0
2018-07-21T03:17:46.679Z,0
2018-07-21T03:18:48.055Z,0
2018-07-21T03:19:49.438Z,0
2018-07-21T03:20:50.836Z,0
2018-07-21T03:21:52.215Z,0
2018-07-21T03:22:53.593Z,0
2018-07-21T03:23:54.978Z,0
2018-07-21T03:24:56.352Z,0
2018-07-21T03:25:57.736Z,0
2018-07-21T03:26:59.120Z,0
2018-07-21T03:28:00.498Z,0
2018-07-21T03:29:01.880Z,0
2018-07-21T03:30:03.273Z,0
2018-07-21T03:31:04.669Z,0
2018-07-21T03:32:06.053Z,0
2018-07-21T03:33:07.474Z,0
2018-07-21T03:34:08.877Z,0
2018-07-21T03:35:10.288Z,0
2018-07-21T03:36:11.715Z,0
2018-07-21T03:37:13.095Z,0
2018-07-21T03:38:14.481Z,0
2018-07-21T03:39:15.878Z,0
2018-07-21T03:40:17.262Z,0
2018-07-21T03:41:18.656Z,0
2018-07-21T03:42:20.053Z,0
2018-07-21T03:43:21.449Z,0
2018-07-21T03:44:22.829Z,0
2018-07-21T03:45:24.204Z,0
2018-07-21T03:46:25.590Z,0
2018-07-21T03:47:26.966Z,0
2018-07-21T03:48:28.358Z,0
2018-07-21T03:49:29.757Z,0
2018-07-21T03:50:31.138Z,0
2018-07-21T03:51:32.526Z,0
2018-07-21T03:52:33.928Z,0
2018-07-21T03:53:35.314Z,0
2018-07-21T03:54:36.697Z,0
2018-07-21T03:55:38.080Z,0
2018-07-21T03:56:39.476Z,0
2018-07-21T03:57:40.872Z,0
2018-07-21T03:58:42.269Z,0
2018-07-21T03:59:43.675Z,0
2018-07-21T04:00:45.067Z,0
2018-07-21T04:01:46.482Z,0
2018-07-21T04:02:47.868Z,0
2018-07-21T04:03:49.249Z,0
2018-07-21T04:04:50.633Z,0
2018-07-21T04:05:52.069Z,0
2018-07-21T04:06:53.454Z,0
2018-07-21T04:07:54.842Z,0
2018-07-21T04:08:56.236Z,0
2018-07-21T04:09:57.593Z,0
2018-07-21T04:10:58.985Z,0
2018-07-21T04:12:00.370Z,0
2018-07-21T04:13:01.743Z,0
2018-07-21T04:14:03.150Z,0
2018-07-21T04:15:04.550Z,0
2018-07-21T04:16:05.948Z,0
2018-07-21T04:17:07.334Z,0
2018-07-21T04:18:08.725Z,0
2018-07-21T04:19:10.122Z,0
2018-07-21T04:20:11.507Z,0
2018-07-21T04:21:12.914Z,0
2018-07-21T04:22:14.319Z,0
2018-07-21T04:23:15.716Z,0
2018-07-21T04:24:17.136Z,0
2018-07-21T04:25:18.483Z,0
2018-07-21T04:26:19.871Z,0
2018-07-21T04:27:21.319Z,0
2018-07-21T04:28:22.713Z,0
2018-07-21T04:29:24.090Z,0
2018-07-21T04:30:25.475Z,0
2018-07-21T04:31:26.863Z,0
2018-07-21T04:32:28.243Z,0
2018-07-21T04:33:29.617Z,0
2018-07-21T04:34:31.005Z,0
2018-07-21T04:35:32.389Z,0
2018-07-21T04:36:33.779Z,0
2018-07-21T04:37:35.168Z,0
2018-07-21T04:38:36.579Z,0
2018-07-21T04:39:37.963Z,0
2018-07-21T04:40:39.348Z,0
2018-07-21T04:41:40.746Z,0
2018-07-21T04:42:42.142Z,0
2018-07-21T04:43:43.525Z,5
2018-07-21T04:44:44.915Z,5
2018-07-21T04:45:46.312Z,5
2018-07-21T04:46:47.712Z,5
2018-07-21T04:47:49.124Z,5
2018-07-21T04:48:50.506Z,5
2018-07-21T04:49:51.900Z,5
2018-07-21T04:50:53.328Z,5
2018-07-21T04:51:54.697Z,5
2018-07-21T04:52:56.081Z,5
2018-07-21T04:53:57.516Z,5
2018-07-21T04:54:58.796Z,5
2018-07-21T04:56:00.188Z,5
2018-07-21T04:57:01.589Z,5
2018-07-21T04:58:02.973Z,5
2018-07-21T04:59:04.362Z,5
2018-07-21T05:00:05.760Z,5
2018-07-21T05:01:07.173Z,5
2018-07-21T05:02:08.525Z,5
2018-07-21T05:03:09.910Z,5
2018-07-21T05:04:11.298Z,5
2018-07-21T05:05:12.679Z,5
2018-07-21T05:06:14.083Z,5
2018-07-21T05:07:15.467Z,5
2018-07-21T05:08:16.861Z,5
2018-07-21T05:09:18.263Z,5
2018-07-21T05:10:19.656Z,5
2018-07-21T05:11:21.055Z,5
2018-07-21T05:12:22.439Z,5
2018-07-21T05:13:23.831Z,5
2018-07-21T05:14:25.203Z,5
2018-07-21T05:15:26.583Z,5
2018-07-21T05:16:27.983Z,5
2018-07-21T05:17:29.361Z,5
2018-07-21T05:18:30.758Z,5
2018-07-21T05:19:32.152Z,5
2018-07-21T05:20:33.570Z,5
2018-07-21T05:21:34.961Z,5
2018-07-21T05:22:36.348Z,5
2018-07-21T05:23:37.754Z,5
2018-07-21T05:24:39.138Z,5
2018-07-21T05:25:40.541Z,5
2018-07-21T05:26:41.945Z,5
2018-07-21T05:27:43.335Z,5
2018-07-21T05:28:44.735Z,5
2018-07-21T05:29:46.131Z,11
2018-07-21T05:30:47.573Z,11
2018-07-21T05:31:48.962Z,11
2018-07-21T05:32:50.366Z,11
2018-07-21T05:33:51.741Z,11
2018-07-21T05:34:53.144Z,11
2018-07-21T05:35:54.531Z,11
2018-07-21T05:36:55.906Z,11
2018-07-21T05:37:57.297Z,11
2018-07-21T05:38:58.730Z,11
2018-07-21T05:40:00.069Z,11
2018-07-21T05:41:01.507Z,11
2018-07-21T05:42:02.899Z,11
2018-07-21T05:43:04.296Z,11
2018-07-21T05:44:05.711Z,11
2018-07-21T05:45:07.163Z,11
2018-07-21T05:46:08.517Z,11
2018-07-21T05:47:09.907Z,11
2018-07-21T05:48:11.325Z,11
2018-07-21T05:49:12.716Z,5
2018-07-21T05:50:14.116Z,5
2018-07-21T05:51:15.514Z,5
2018-07-21T05:52:16.922Z,5
2018-07-21T05:53:18.391Z,5
2018-07-21T05:54:19.757Z,5
2018-07-21T05:55:21.146Z,5
2018-07-21T05:56:22.540Z,5
2018-07-21T05:57:23.943Z,5
2018-07-21T05:58:25.323Z,5
2018-07-21T05:59:26.714Z,5
2018-07-21T06:00:28.106Z,5
2018-07-21T06:01:29.506Z,5
2018-07-21T06:02:30.906Z,5
2018-07-21T06:03:32.308Z,5
2018-07-21T06:04:33.800Z,5
2018-07-21T06:05:35.203Z,5
2018-07-21T06:06:36.600Z,5
2018-07-21T06:07:38.005Z,5
2018-07-21T06:08:39.468Z,5
2018-07-21T06:09:40.793Z,5
2018-07-21T06:10:42.185Z,5
2018-07-21T06:11:43.564Z,5
2018-07-21T06:12:44.956Z,5
2018-07-21T06:13:46.329Z,5
2018-07-21T06:14:47.716Z,5
2018-07-21T06:15:49.108Z,5
2018-07-21T06:16:50.516Z,5
2018-07-21T06:17:51.910Z,5
2018-07-21T06:18:53.325Z,5
2018-07-21T06:19:54.733Z,5
2018-07-21T06:20:56.132Z,5
2018-07-21T06:21:57.535Z,5
2018-07-21T06:22:58.962Z,5
2018-07-21T06:24:00.353Z,5
2018-07-21T06:25:01.715Z,5
2018-07-21T06:26:03.104Z,11
2018-07-21T06:27:04.486Z,11
2018-07-21T06:28:05.942Z,11
2018-07-21T06:29:07.230Z,11
2018-07-21T06:30:08.640Z,11
2018-07-21T06:31:10.035Z,11
2018-07-21T06:32:11.430Z,11
2018-07-21T06:33:12.841Z,11
2018-07-21T06:34:14.237Z,11
2018-07-21T06:35:15.638Z,11
2018-07-21T06:36:17.033Z,11
2018-07-21T06:37:18.451Z,11
2018-07-21T06:38:19.853Z,11
2018-07-21T06:39:21.269Z,11
2018-07-21T06:40:22.713Z,11
2018-07-21T06:41:24.116Z,11
2018-07-21T06:42:25.531Z,11
2018-07-21T06:43:26.933Z,11
2018-07-21T06:44:28.341Z,11
2018-07-21T06:45:29.744Z,11
2018-07-21T06:46:31.139Z,11
2018-07-21T06:47:32.533Z,11
2018-07-21T06:48:33.954Z,11
2018-07-21T06:49:35.996Z,11
2018-07-21T06:50:37.424Z,11
2018-07-21T06:51:38.831Z,11
2018-07-21T06:52:40.322Z,11
2018-07-21T06:53:41.725Z,11
2018-07-21T06:54:43.085Z,16
2018-07-21T06:55:44.472Z,16
2018-07-21T06:56:45.859Z,16
2018-07-21T06:57:47.314Z,16
2018-07-21T06:58:48.650Z,16
2018-07-21T06:59:50.703Z,16
2018-07-21T07:00:52.055Z,16
2018-07-21T07:01:53.453Z,16
2018-07-21T07:02:54.850Z,22
2018-07-21T07:03:56.252Z,22
2018-07-21T07:04:57.641Z,22
2018-07-21T07:05:59.020Z,22
2018-07-21T07:07:00.400Z,22
2018-07-21T07:08:01.788Z,22
2018-07-21T07:09:03.195Z,28
2018-07-21T07:10:04.582Z,28
2018-07-21T07:11:05.963Z,28
2018-07-21T07:12:07.340Z,28
2018-07-21T07:13:08.766Z,28
2018-07-21T07:14:10.885Z,28
2018-07-21T07:15:12.259Z,28
2018-07-21T07:16:13.650Z,28
2018-07-21T07:17:15.019Z,33
2018-07-21T07:18:16.414Z,33
2018-07-21T07:19:17.806Z,33
2018-07-21T07:20:19.203Z,33
2018-07-21T07:21:20.599Z,33
2018-07-21T07:22:21.980Z,33
2018-07-21T07:23:23.372Z,33
2018-07-21T07:24:24.762Z,33
2018-07-21T07:25:26.168Z,33
2018-07-21T07:26:27.553Z,33
2018-07-21T07:27:28.955Z,33
2018-07-21T07:28:30.327Z,33
2018-07-21T07:29:31.706Z,33
2018-07-21T07:30:33.087Z,33
2018-07-21T07:31:34.466Z,33
2018-07-21T07:32:35.847Z,33
2018-07-21T07:33:37.266Z,33
2018-07-21T07:34:38.608Z,33
2018-07-21T07:35:39.999Z,33
2018-07-21T07:36:41.406Z,33
2018-07-21T07:37:42.796Z,28
2018-07-21T07:38:44.175Z,28
2018-07-21T07:39:45.572Z,28
2018-07-21T07:40:46.992Z,28
2018-07-21T07:41:48.345Z,28
2018-07-21T07:42:49.731Z,28
2018-07-21T07:43:51.115Z,28
2018-07-21T07:44:52.501Z,28
2018-07-21T07:45:53.890Z,28
2018-07-21T07:46:55.275Z,28
2018-07-21T07:47:56.664Z,28
2018-07-21T07:48:58.061Z,28
2018-07-21T07:49:59.433Z,28
2018-07-21T07:51:00.817Z,28
2018-07-21T07:52:02.235Z,28
2018-07-21T07:53:03.622Z,28
2018-07-21T07:54:05.003Z,28
2018-07-21T07:55:06.380Z,33
2018-07-21T07:56:07.772Z,33
2018-07-21T07:57:09.165Z,33
2018-07-21T07:58:10.539Z,33
2018-07-21T07:59:11.918Z,33
2018-07-21T08:00:13.303Z,33
2018-07-21T08:01:14.707Z,33
2018-07-21T08:02:16.080Z,33
2018-07-21T08:03:17.470Z,33
2018-07-21T08:04:18.852Z,39
2018-07-21T08:05:20.229Z,39
2018-07-21T08:06:21.614Z,39
2018-07-21T08:07:22.996Z,33
2018-07-21T08:08:24.384Z,33
2018-07-21T08:09:25.763Z,33
2018-07-21T08:10:27.144Z,33
2018-07-21T08:11:28.529Z,33
2018-07-21T08:12:29.917Z,33
2018-07-21T08:13:31.310Z,33
2018-07-21T08:14:32.685Z,33
2018-07-21T08:15:34.074Z,33
2018-07-21T08:16:35.457Z,33
2018-07-21T08:17:36.843Z,33
2018-07-21T08:18:38.232Z,33
2018-07-21T08:19:39.625Z,33
2018-07-21T08:20:40.999Z,33
2018-07-21T08:21:42.390Z,33
2018-07-21T08:22:43.778Z,39
2018-07-21T08:23:45.158Z,39
2018-07-21T08:24:46.546Z,39
2018-07-21T08:25:47.938Z,39
2018-07-21T08:26:49.326Z,39
2018-07-21T08:27:50.712Z,39
2018-07-21T08:28:52.093Z,39
2018-07-21T08:29:53.477Z,45
2018-07-21T08:30:54.864Z,45
2018-07-21T08:31:56.282Z,45
2018-07-21T08:32:57.686Z,45
2018-07-21T08:33:59.073Z,45
2018-07-21T08:35:00.462Z,45
2018-07-21T08:36:01.846Z,45
2018-07-21T08:37:03.228Z,50
2018-07-21T08:38:04.616Z,50
2018-07-21T08:39:06.007Z,50
2018-07-21T08:40:07.387Z,50
2018-07-21T08:41:08.774Z,50
2018-07-21T08:42:10.162Z,50
2018-07-21T08:43:11.545Z,50
2018-07-21T08:44:12.930Z,50
2018-07-21T08:45:14.319Z,50
2018-07-21T08:46:15.713Z,50
2018-07-21T08:47:17.085Z,50
2018-07-21T08:48:18.475Z,50
2018-07-21T08:49:19.855Z,50
2018-07-21T08:50:21.240Z,50
2018-07-21T08:51:22.630Z,50
2018-07-21T08:52:24.054Z,50
2018-07-21T08:53:25.439Z,50
2018-07-21T08:54:26.836Z,50
2018-07-21T08:55:28.222Z,56
2018-07-21T08:56:29.599Z,56
2018-07-21T08:57:31.014Z,56
2018-07-21T08:58:32.362Z,56
2018-07-21T08:59:33.752Z,56
2018-07-21T09:00:35.190Z,56
2018-07-21T09:01:36.592Z,56
2018-07-21T09:02:37.985Z,56
2018-07-21T09:03:39.369Z,61
2018-07-21T09:04:41.510Z,61
2018-07-21T09:05:42.959Z,61
2018-07-21T09:06:44.308Z,67
2018-07-21T09:07:45.696Z,73
2018-07-21T09:08:47.098Z,73
2018-07-21T09:09:48.478Z,78
2018-07-21T09:10:49.864Z,84
2018-07-21T09:11:51.248Z,84
2018-07-21T09:12:52.638Z,90
2018-07-21T09:13:54.022Z,90
2018-07-21T09:14:55.413Z,90
2018-07-21T09:15:56.810Z,90
2018-07-21T09:16:58.198Z,90
2018-07-21T09:17:59.589Z,95
2018-07-21T09:19:00.980Z,90
2018-07-21T09:20:02.378Z,90
2018-07-21T09:21:03.774Z,84
2018-07-21T09:22:05.153Z,84
2018-07-21T09:23:06.539Z,90
2018-07-21T09:24:07.920Z,84
2018-07-21T09:25:09.309Z,84
2018-07-21T09:26:10.693Z,78
2018-07-21T09:27:12.083Z,67
2018-07-21T09:28:13.491Z,61
2018-07-21T09:29:14.834Z,67
2018-07-21T09:30:16.220Z,67
2018-07-21T09:31:17.594Z,56
2018-07-21T09:32:19.007Z,56
2018-07-21T09:33:20.395Z,45
2018-07-21T09:34:21.783Z,50
2018-07-21T09:35:23.178Z,50
2018-07-21T09:36:24.569Z,50
2018-07-21T09:37:25.969Z,45
2018-07-21T09:38:27.399Z,45
2018-07-21T09:39:28.774Z,39
2018-07-21T09:40:30.172Z,33
2018-07-21T09:41:31.550Z,28
2018-07-21T09:42:33.001Z,33
2018-07-21T09:43:34.375Z,33
2018-07-21T09:44:35.763Z,33
2018-07-21T09:45:37.141Z,28
2018-07-21T09:46:38.528Z,22
2018-07-21T09:47:39.908Z,22
2018-07-21T09:48:41.306Z,16
2018-07-21T09:49:42.703Z,16
2018-07-21T09:50:44.084Z,16
2018-07-21T09:51:45.462Z,16
2018-07-21T09:52:46.884Z,16
2018-07-21T09:53:48.263Z,16
2018-07-21T09:54:49.642Z,16
2018-07-21T09:55:51.150Z,16
2018-07-21T09:56:52.508Z,16
2018-07-21T09:57:53.862Z,16
2018-07-21T09:58:55.238Z,22
2018-07-21T09:59:56.623Z,22
2018-07-21T10:00:58.008Z,22
2018-07-21T10:01:59.502Z,22
2018-07-21T10:03:00.903Z,22
2018-07-21T10:04:02.276Z,22
2018-07-21T10:05:03.662Z,22
2018-07-21T10:06:05.046Z,16
2018-07-21T10:07:06.465Z,16
2018-07-21T10:08:07.857Z,16
2018-07-21T10:09:09.243Z,16
2018-07-21T10:10:10.622Z,16
2018-07-21T10:11:12.023Z,22
2018-07-21T10:12:13.406Z,28
2018-07-21T10:13:14.805Z,28
2018-07-21T10:14:16.181Z,28
2018-07-21T10:15:17.584Z,28
2018-07-21T10:16:18.951Z,28
2018-07-21T10:17:20.357Z,33
2018-07-21T10:18:21.738Z,33
2018-07-21T10:19:23.137Z,39
2018-07-21T10:20:24.525Z,39
2018-07-21T10:21:25.944Z,39
2018-07-21T10:22:27.326Z,39
2018-07-21T10:23:28.734Z,39
2018-07-21T10:24:30.121Z,33
2018-07-21T10:25:31.506Z,33
2018-07-21T10:26:32.891Z,33
2018-07-21T10:27:34.296Z,33
2018-07-21T10:28:35.745Z,33
2018-07-21T10:29:37.101Z,33
2018-07-21T10:30:38.571Z,33
2018-07-21T10:31:39.980Z,33
2018-07-21T10:32:41.438Z,33
2018-07-21T10:33:43.933Z,33
2018-07-21T10:34:45.402Z,39
2018-07-21T10:35:46.796Z,39
2018-07-21T10:36:48.202Z,39
2018-07-21T10:37:49.882Z,39
2018-07-21T10:38:51.312Z,39
2018-07-21T10:39:52.770Z,39
2018-07-21T10:40:54.170Z,39
2018-07-21T10:41:55.591Z,39
2018-07-21T10:42:57.008Z,39
2018-07-21T10:43:58.401Z,39
2018-07-21T10:44:59.798Z,39
2018-07-21T10:46:01.206Z,39
2018-07-21T10:47:03.595Z,39
2018-07-21T10:48:05.026Z,39
2018-07-21T10:49:06.437Z,39
2018-07-21T10:50:07.866Z,39
2018-07-21T10:51:09.302Z,39
2018-07-21T10:52:10.708Z,45
2018-07-21T10:53:12.164Z,45
2018-07-21T10:54:13.612Z,45
2018-07-21T10:55:15.082Z,45
2018-07-21T10:56:16.491Z,45
2018-07-21T10:57:17.884Z,39
2018-07-21T10:58:19.298Z,39
2018-07-21T10:59:20.703Z,33
2018-07-21T11:00:22.162Z,33
2018-07-21T11:01:23.524Z,33
2018-07-21T11:02:24.928Z,33
2018-07-21T11:03:26.331Z,33
2018-07-21T11:04:27.741Z,28
2018-07-21T11:05:29.141Z,33
2018-07-21T11:06:30.532Z,28
2018-07-21T11:07:31.934Z,28
2018-07-21T11:08:33.337Z,28
2018-07-21T11:09:34.741Z,28
2018-07-21T11:10:36.151Z,28
2018-07-21T11:11:37.576Z,28
2018-07-21T11:12:39.003Z,28
2018-07-21T11:13:40.415Z,28
2018-07-21T11:14:41.818Z,28
2018-07-21T11:15:43.223Z,28
2018-07-21T11:16:44.638Z,28
2018-07-21T11:17:46.031Z,28
2018-07-21T11:18:47.448Z,28
2018-07-21T11:19:48.866Z,28
2018-07-21T11:20:50.265Z,28
2018-07-21T11:21:51.744Z,28
2018-07-21T11:22:53.187Z,28
2018-07-21T11:23:54.604Z,28
2018-07-21T11:24:55.986Z,28
2018-07-21T11:25:57.481Z,28
2018-07-21T11:26:58.890Z,28
2018-07-21T11:28:00.334Z,28
2018-07-21T11:29:01.738Z,28
2018-07-21T11:30:03.123Z,28
2018-07-21T11:31:04.532Z,28
2018-07-21T11:32:05.937Z,28
2018-07-21T11:33:07.434Z,33
2018-07-21T11:34:08.851Z,33
2018-07-21T11:35:10.423Z,33
2018-07-21T11:36:11.950Z,28
2018-07-21T11:37:13.217Z,22
2018-07-21T11:38:14.620Z,28
2018-07-21T11:39:16.110Z,28
2018-07-21T11:40:17.516Z,28
2018-07-21T11:41:18.922Z,33
2018-07-21T11:42:20.321Z,33
2018-07-21T11:43:21.710Z,33
2018-07-21T11:44:23.182Z,33
2018-07-21T11:45:24.634Z,28
2018-07-21T11:46:26.181Z,28
2018-07-21T11:47:27.569Z,28
2018-07-21T11:48:29.070Z,28
2018-07-21T11:49:30.476Z,28
2018-07-21T11:50:31.875Z,22
2018-07-21T11:51:33.307Z,22
2018-07-21T11:52:34.774Z,22
2018-07-21T11:53:36.168Z,22
2018-07-21T11:54:37.566Z,22
2018-07-21T11:55:38.947Z,22
2018-07-21T11:56:40.339Z,22
2018-07-21T11:57:41.734Z,22
2018-07-21T11:58:43.224Z,22
2018-07-21T11:59:44.581Z,22
2018-07-21T12:00:46.458Z,28
2018-07-21T12:01:47.907Z,28
2018-07-21T12:02:49.304Z,33
2018-07-21T12:03:50.708Z,33
2018-07-21T12:04:52.132Z,39
2018-07-21T12:05:53.505Z,39
2018-07-21T12:06:54.982Z,39
2018-07-21T12:07:56.286Z,45
2018-07-21T12:08:57.736Z,45
2018-07-21T12:09:59.133Z,45
2018-07-21T12:11:00.793Z,39
2018-07-21T12:12:02.211Z,39
2018-07-21T12:13:03.645Z,45
2018-07-21T12:14:05.020Z,45
2018-07-21T12:15:06.412Z,45
2018-07-21T12:16:07.805Z,45
2018-07-21T12:17:09.194Z,45
2018-07-21T12:18:10.650Z,45
2018-07-21T12:19:12.035Z,45
2018-07-21T12:20:13.494Z,45
2018-07-21T12:21:14.846Z,45
2018-07-21T12:22:16.264Z,45
2018-07-21T12:23:17.717Z,45
2018-07-21T12:24:19.116Z,45
2018-07-21T12:25:21.469Z,45
2018-07-21T12:26:25.648Z,45
2018-07-21T12:27:27.099Z,45
2018-07-21T12:28:28.442Z,45
2018-07-21T12:29:29.850Z,45
2018-07-21T12:30:31.260Z,45
2018-07-21T12:31:32.707Z,45
2018-07-21T12:32:34.111Z,45
2018-07-21T12:33:35.551Z,45
2018-07-21T12:34:36.931Z,45
2018-07-21T12:35:38.317Z,45
2018-07-21T12:36:39.766Z,45
2018-07-21T12:37:41.164Z,45
2018-07-21T12:38:42.594Z,45
2018-07-21T12:39:43.976Z,50
2018-07-21T12:40:45.418Z,50
2018-07-21T12:41:46.840Z,50
2018-07-21T12:42:48.233Z,50
2018-07-21T12:43:49.755Z,50
2018-07-21T12:44:51.176Z,50
2018-07-21T12:45:52.519Z,50
2018-07-21T12:46:54.010Z,56
2018-07-21T12:47:55.420Z,56
2018-07-21T12:48:56.802Z,56
2018-07-21T12:49:58.189Z,61
2018-07-21T12:50:59.588Z,61
2018-07-21T12:52:00.977Z,61
2018-07-21T12:53:02.365Z,61
2018-07-21T12:54:03.744Z,61
2018-07-21T12:55:05.547Z,67
2018-07-21T12:56:06.928Z,67
2018-07-21T12:57:08.404Z,67
2018-07-21T12:58:09.776Z,67
2018-07-21T12:59:11.165Z,67
2018-07-21T13:00:12.584Z,67
2018-07-21T13:01:13.966Z,67
2018-07-21T13:02:15.358Z,73
2018-07-21T13:03:16.756Z,73
2018-07-21T13:04:18.088Z,73
2018-07-21T13:05:19.489Z,73
2018-07-21T13:06:20.945Z,73
2018-07-21T13:07:22.390Z,73
2018-07-21T13:08:23.797Z,67
2018-07-21T13:09:25.222Z,67
2018-07-21T13:10:26.628Z,67
2018-07-21T13:11:28.054Z,67
2018-07-21T13:12:29.431Z,67
2018-07-21T13:13:36.358Z,73
2018-07-21T13:14:37.769Z,78
2018-07-21T13:15:39.184Z,84
2018-07-21T13:16:40.632Z,84
2018-07-21T13:17:42.030Z,78
2018-07-21T13:18:43.473Z,78
2018-07-21T13:19:44.886Z,78
2018-07-21T13:20:46.276Z,78
2018-07-21T13:21:47.671Z,84
2018-07-21T13:22:49.083Z,84
2018-07-21T13:23:50.611Z,90
2018-07-21T13:24:52.101Z,90
2018-07-21T13:25:53.498Z,90
2018-07-21T13:26:54.882Z,90
2018-07-21T13:27:56.277Z,84
2018-07-21T13:28:57.705Z,78
2018-07-21T13:29:59.201Z,73
2018-07-21T13:31:00.613Z,67
2018-07-21T13:32:02.026Z,67
2018-07-21T13:33:03.461Z,67
2018-07-21T13:34:04.929Z,61
2018-07-21T13:35:06.379Z,61
2018-07-21T13:36:07.819Z,61
2018-07-21T13:37:09.215Z,61
2018-07-21T13:38:10.616Z,61
2018-07-21T13:39:12.039Z,61
2018-07-21T13:40:13.451Z,56
2018-07-21T13:41:14.823Z,56
2018-07-21T13:42:16.235Z,56
2018-07-21T13:43:17.663Z,56
2018-07-21T13:44:19.089Z,56
2018-07-21T13:45:20.565Z,56
2018-07-21T13:46:22.035Z,56
2018-07-21T13:47:23.508Z,56
2018-07-21T13:48:25.117Z,61
2018-07-21T13:49:26.509Z,61
2018-07-21T13:50:27.945Z,61
2018-07-21T13:51:29.473Z,61
2018-07-21T13:52:30.869Z,67
2018-07-21T13:53:32.286Z,67
2018-07-21T13:54:33.685Z,67
2018-07-21T13:55:35.122Z,67
2018-07-21T13:56:36.503Z,67
2018-07-21T13:57:37.890Z,73
2018-07-21T13:58:39.284Z,73
2018-07-21T13:59:40.667Z,67
2018-07-21T14:00:42.077Z,67
2018-07-21T14:01:43.453Z,61
2018-07-21T14:02:44.847Z,61
2018-07-21T14:03:46.241Z,56
2018-07-21T14:04:48.483Z,56
2018-07-21T14:05:49.872Z,50
2018-07-21T14:06:51.262Z,50
2018-07-21T14:07:52.670Z,50
2018-07-21T14:08:54.101Z,50
2018-07-21T14:09:55.507Z,50
2018-07-21T14:10:56.931Z,50
2018-07-21T14:12:01.138Z,50
2018-07-21T14:13:02.534Z,50
2018-07-21T14:14:03.970Z,50
2018-07-21T14:15:05.994Z,50
2018-07-21T14:16:13.342Z,50
2018-07-21T14:17:22.348Z,56
2018-07-21T14:18:25.684Z,56
2018-07-21T14:19:31.349Z,56
2018-07-21T14:20:31.756Z,56
2018-07-21T14:21:33.141Z,56
2018-07-21T14:22:34.569Z,56
2018-07-21T14:23:35.974Z,61
2018-07-21T14:24:37.360Z,61
2018-07-21T14:25:38.742Z,61
2018-07-21T14:26:40.148Z,61
2018-07-21T14:27:41.558Z,61
2018-07-21T14:28:43.133Z,61
2018-07-21T14:29:44.602Z,67
2018-07-21T14:30:45.922Z,67
2018-07-21T14:31:47.371Z,73
2018-07-21T14:32:48.736Z,73
2018-07-21T14:33:50.127Z,73
2018-07-21T14:34:51.524Z,73
2018-07-21T14:35:52.972Z,78
2018-07-21T14:36:55.542Z,95
2018-07-21T14:37:57.640Z,101
2018-07-21T14:38:59.019Z,90
2018-07-21T14:40:03.854Z,90
2018-07-21T14:41:08.854Z,90
2018-07-21T14:42:12.481Z,95
2018-07-21T14:43:14.562Z,106
2018-07-21T14:44:16.778Z,106
2018-07-21T14:45:20.698Z,90
2018-07-21T14:46:22.101Z,84
2018-07-21T14:48:31.655Z,84
2018-07-21T14:49:33.799Z,95
2018-07-21T14:50:35.899Z,95